Aérodrome :
LOGIN :

S'inscrire | Disclaimer

   EN    FR    IT 

 










Légende :    VFR   VFR Marginal   IFR   IFR Intensif   IFR Très Intensif
Visi : 
Plafond : 
>= 8 km
>= 3000ft
5 à 8 km
1000 à 3000 ft
1500m à 5 km
500 à 1000 ft
800 à 1500m
200 à 500 ft
< 800m
< 200 ft
Symboles :   Orages  Brouillard  Fortes neiges  Fortes précipitations  Vent > 20 kt
SIGMETs :   Divers  Orages  Givrage  Turbulence  Onde Orograph.  Cendres Volcan.






- Altitude de l'aérodrome : 235 ft
- Code IATA : BZG


EPBY - Bydgoszcz

DERNIER METAR :
  • 020630Z 11006KT 7000 BKN048 06/06 Q1010

METARs EXPIRÉS :
  • 020600Z 11007KT 6000 SCT014 BKN045 06/05 Q1010
  • 020530Z 10007KT 6000 BKN045 06/05 Q1010
  • 020500Z 12005KT 7000 BKN044 06/05 Q1010
  • 020430Z 11008KT 7000 SCT043 06/06 Q1010
  • 012100Z 13009KT 9000 -RA NSC 09/07 Q1011
  • 020400Z 12008KT 6000 SCT008 BKN040 06/06 Q1010
  • 020330Z 11008KT 4300 BR SCT040 06/05 Q1010
  • 020300Z 11008KT 3900 BR SCT008 06/05 Q1010
  • 020230Z 12008KT 4200 BR BKN008 07/06 Q1010
  • 020200Z 11007KT 4500 BR SCT008 BKN013 07/06 Q1010
  • 020130Z 11009KT 4300 BR SCT008 BKN012 07/06 Q1010

TAF TAF EPBY
Valide du 02 à 06h jusqu'au 03 à 06h UTC


020530Z 0206/0306 12012KT 8000 SCT040
PROB30
TEMPO 0206/0212 BKN014
BECMG 0222/0301 4000 BR BKN008



MET'MAP, la Météo Aéronautique d'un coup d'oeil ! - Copyright ORBIFLY Décembre 2007 - Disclaimer

ORBIFLY MET'MAP TEAM :

Programmation & Développement : Alexandra Zaïnal
Sur une idée originale de : Baudouin d'Aumeries
Soutien technique & logistique : Manuel Goepfert
Assistance : Marc-Olivier Méhu




SOURCES & CREDITS :

   NOAA